sensor_id;sensor_type;location;lat;lon;timestamp;P1;durP1;ratioP1;P2;durP2;ratioP2
45356;SDS011;31092;51.924;21.448;2023-07-02T00:00:04;1.92;;;1.65;;
45356;SDS011;31092;51.924;21.448;2023-07-02T00:02:31;2.20;;;2.00;;
45356;SDS011;31092;51.924;21.448;2023-07-02T00:04:57;2.33;;;2.13;;
45356;SDS011;31092;51.924;21.448;2023-07-02T00:07:22;3.85;;;3.08;;
45356;SDS011;31092;51.924;21.448;2023-07-02T00:09:51;3.58;;;3.20;;
45356;SDS011;31092;51.924;21.448;2023-07-02T00:12:17;6.93;;;3.13;;
45356;SDS011;31092;51.924;21.448;2023-07-02T00:14:46;3.97;;;3.42;;
45356;SDS011;31092;51.924;21.448;2023-07-02T00:17:11;4.75;;;3.83;;
45356;SDS011;31092;51.924;21.448;2023-07-02T00:19:41;7.57;;;4.72;;
45356;SDS011;31092;51.924;21.448;2023-07-02T00:22:07;4.57;;;3.40;;
45356;SDS011;31092;51.924;21.448;2023-07-02T00:24:36;3.97;;;3.35;;
45356;SDS011;31092;51.924;21.448;2023-07-02T00:27:02;4.15;;;3.75;;
45356;SDS011;31092;51.924;21.448;2023-07-02T00:29:30;3.88;;;3.47;;
45356;SDS011;31092;51.924;21.448;2023-07-02T00:31:56;3.58;;;3.25;;
45356;SDS011;31092;51.924;21.448;2023-07-02T00:34:21;3.42;;;3.13;;
45356;SDS011;31092;51.924;21.448;2023-07-02T00:36:47;6.75;;;4.10;;
45356;SDS011;31092;51.924;21.448;2023-07-02T00:39:13;4.88;;;3.85;;
45356;SDS011;31092;51.924;21.448;2023-07-02T00:41:38;4.25;;;3.85;;
45356;SDS011;31092;51.924;21.448;2023-07-02T00:44:05;4.07;;;3.67;;
45356;SDS011;31092;51.924;21.448;2023-07-02T00:46:30;4.53;;;4.07;;
45356;SDS011;31092;51.924;21.448;2023-07-02T00:48:56;3.58;;;3.25;;
45356;SDS011;31092;51.924;21.448;2023-07-02T00:51:24;9.43;;;4.60;;
45356;SDS011;31092;51.924;21.448;2023-07-02T00:53:53;5.88;;;3.70;;
45356;SDS011;31092;51.924;21.448;2023-07-02T00:58:51;4.95;;;4.15;;
45356;SDS011;31092;51.924;21.448;2023-07-02T01:01:20;4.57;;;3.97;;
45356;SDS011;31092;51.924;21.448;2023-07-02T01:03:55;4.75;;;4.03;;
45356;SDS011;31092;51.924;21.448;2023-07-02T01:06:34;7.85;;;4.00;;
45356;SDS011;31092;51.924;21.448;2023-07-02T01:09:04;4.75;;;4.07;;
45356;SDS011;31092;51.924;21.448;2023-07-02T01:11:34;6.45;;;4.47;;
45356;SDS011;31092;51.924;21.448;2023-07-02T01:16:49;5.50;;;4.13;;
45356;SDS011;31092;51.924;21.448;2023-07-02T01:21:59;5.43;;;4.47;;
45356;SDS011;31092;51.924;21.448;2023-07-02T01:24:25;7.78;;;5.60;;
45356;SDS011;31092;51.924;21.448;2023-07-02T01:26:52;8.27;;;4.70;;
45356;SDS011;31092;51.924;21.448;2023-07-02T01:29:19;30.50;;;6.38;;
45356;SDS011;31092;51.924;21.448;2023-07-02T01:31:45;29.27;;;5.55;;
45356;SDS011;31092;51.924;21.448;2023-07-02T01:34:12;7.50;;;5.53;;
45356;SDS011;31092;51.924;21.448;2023-07-02T01:36:38;6.78;;;4.32;;
45356;SDS011;31092;51.924;21.448;2023-07-02T01:39:04;7.57;;;4.40;;
45356;SDS011;31092;51.924;21.448;2023-07-02T01:44:36;7.65;;;5.10;;
45356;SDS011;31092;51.924;21.448;2023-07-02T01:47:02;9.15;;;4.47;;
45356;SDS011;31092;51.924;21.448;2023-07-02T01:49:29;9.68;;;4.95;;
45356;SDS011;31092;51.924;21.448;2023-07-02T01:51:55;5.88;;;4.82;;
45356;SDS011;31092;51.924;21.448;2023-07-02T01:54:22;6.50;;;4.38;;
45356;SDS011;31092;51.924;21.448;2023-07-02T01:56:49;8.07;;;6.05;;
45356;SDS011;31092;51.924;21.448;2023-07-02T01:59:15;8.65;;;5.95;;
45356;SDS011;31092;51.924;21.448;2023-07-02T02:01:41;8.25;;;5.63;;
45356;SDS011;31092;51.924;21.448;2023-07-02T02:04:13;5.95;;;4.78;;
45356;SDS011;31092;51.924;21.448;2023-07-02T02:06:40;7.07;;;4.97;;
45356;SDS011;31092;51.924;21.448;2023-07-02T02:09:07;9.68;;;5.43;;
45356;SDS011;31092;51.924;21.448;2023-07-02T02:11:34;10.77;;;6.45;;
45356;SDS011;31092;51.924;21.448;2023-07-02T02:14:04;14.25;;;7.18;;
45356;SDS011;31092;51.924;21.448;2023-07-02T02:16:30;8.60;;;6.25;;
45356;SDS011;31092;51.924;21.448;2023-07-02T02:19:04;9.35;;;6.72;;
45356;SDS011;31092;51.924;21.448;2023-07-02T02:21:31;12.55;;;7.50;;
45356;SDS011;31092;51.924;21.448;2023-07-02T02:23:57;11.70;;;6.95;;
45356;SDS011;31092;51.924;21.448;2023-07-02T02:26:23;15.90;;;8.50;;
45356;SDS011;31092;51.924;21.448;2023-07-02T02:28:55;24.88;;;6.32;;
45356;SDS011;31092;51.924;21.448;2023-07-02T02:31:21;10.57;;;6.13;;
45356;SDS011;31092;51.924;21.448;2023-07-02T02:33:47;12.43;;;7.70;;
45356;SDS011;31092;51.924;21.448;2023-07-02T02:36:15;14.80;;;8.90;;
45356;SDS011;31092;51.924;21.448;2023-07-02T02:38:42;13.48;;;8.27;;
45356;SDS011;31092;51.924;21.448;2023-07-02T02:41:08;13.98;;;7.35;;
45356;SDS011;31092;51.924;21.448;2023-07-02T02:43:33;11.18;;;7.43;;
45356;SDS011;31092;51.924;21.448;2023-07-02T02:45:59;10.10;;;7.10;;
45356;SDS011;31092;51.924;21.448;2023-07-02T02:48:27;11.45;;;6.43;;
45356;SDS011;31092;51.924;21.448;2023-07-02T02:54:26;10.05;;;6.72;;
45356;SDS011;31092;51.924;21.448;2023-07-02T02:56:58;9.27;;;6.40;;
45356;SDS011;31092;51.924;21.448;2023-07-02T03:02:45;52.72;;;8.25;;
45356;SDS011;31092;51.924;21.448;2023-07-02T03:05:10;11.52;;;7.82;;
45356;SDS011;31092;51.924;21.448;2023-07-02T03:07:37;10.45;;;6.65;;
45356;SDS011;31092;51.924;21.448;2023-07-02T03:10:12;9.73;;;6.65;;
45356;SDS011;31092;51.924;21.448;2023-07-02T03:12:38;11.57;;;6.70;;
45356;SDS011;31092;51.924;21.448;2023-07-02T03:15:07;11.18;;;7.28;;
45356;SDS011;31092;51.924;21.448;2023-07-02T03:21:10;15.30;;;9.07;;
45356;SDS011;31092;51.924;21.448;2023-07-02T03:26:01;13.35;;;9.05;;
45356;SDS011;31092;51.924;21.448;2023-07-02T03:28:27;17.10;;;9.40;;
45356;SDS011;31092;51.924;21.448;2023-07-02T03:30:53;16.20;;;10.30;;
45356;SDS011;31092;51.924;21.448;2023-07-02T03:33:19;16.05;;;10.32;;
45356;SDS011;31092;51.924;21.448;2023-07-02T03:35:54;12.68;;;9.50;;
45356;SDS011;31092;51.924;21.448;2023-07-02T03:38:26;26.13;;;17.80;;
45356;SDS011;31092;51.924;21.448;2023-07-02T03:40:52;21.35;;;12.52;;
45356;SDS011;31092;51.924;21.448;2023-07-02T03:43:18;18.42;;;10.70;;
45356;SDS011;31092;51.924;21.448;2023-07-02T03:45:43;17.65;;;10.30;;
45356;SDS011;31092;51.924;21.448;2023-07-02T03:48:09;14.43;;;8.63;;
45356;SDS011;31092;51.924;21.448;2023-07-02T03:50:35;15.73;;;8.18;;
45356;SDS011;31092;51.924;21.448;2023-07-02T03:53:00;21.73;;;8.50;;
45356;SDS011;31092;51.924;21.448;2023-07-02T03:55:26;16.42;;;7.50;;
45356;SDS011;31092;51.924;21.448;2023-07-02T03:57:51;26.40;;;9.05;;
45356;SDS011;31092;51.924;21.448;2023-07-02T04:00:17;20.40;;;10.32;;
45356;SDS011;31092;51.924;21.448;2023-07-02T04:02:43;19.13;;;9.80;;
45356;SDS011;31092;51.924;21.448;2023-07-02T04:05:08;14.35;;;8.43;;
45356;SDS011;31092;51.924;21.448;2023-07-02T04:07:34;14.80;;;8.77;;
45356;SDS011;31092;51.924;21.448;2023-07-02T04:10:00;17.00;;;9.02;;
45356;SDS011;31092;51.924;21.448;2023-07-02T04:12:26;21.42;;;7.90;;
45356;SDS011;31092;51.924;21.448;2023-07-02T04:14:52;11.85;;;7.03;;
45356;SDS011;31092;51.924;21.448;2023-07-02T04:17:18;24.25;;;11.32;;
45356;SDS011;31092;51.924;21.448;2023-07-02T04:19:46;32.50;;;14.25;;
45356;SDS011;31092;51.924;21.448;2023-07-02T04:22:12;75.45;;;15.07;;
45356;SDS011;31092;51.924;21.448;2023-07-02T04:27:40;49.33;;;12.63;;
45356;SDS011;31092;51.924;21.448;2023-07-02T04:30:07;39.08;;;14.82;;
45356;SDS011;31092;51.924;21.448;2023-07-02T04:32:47;40.88;;;12.38;;
45356;SDS011;31092;51.924;21.448;2023-07-02T04:35:13;47.00;;;16.40;;
45356;SDS011;31092;51.924;21.448;2023-07-02T04:37:38;48.25;;;13.30;;
45356;SDS011;31092;51.924;21.448;2023-07-02T04:40:19;18.15;;;11.52;;
45356;SDS011;31092;51.924;21.448;2023-07-02T04:42:45;19.27;;;12.43;;
45356;SDS011;31092;51.924;21.448;2023-07-02T04:45:12;27.33;;;14.68;;
45356;SDS011;31092;51.924;21.448;2023-07-02T04:47:44;21.73;;;12.63;;
45356;SDS011;31092;51.924;21.448;2023-07-02T04:50:15;42.58;;;11.43;;
45356;SDS011;31092;51.924;21.448;2023-07-02T04:56:03;42.63;;;13.38;;
45356;SDS011;31092;51.924;21.448;2023-07-02T04:58:35;30.25;;;14.95;;
45356;SDS011;31092;51.924;21.448;2023-07-02T05:01:12;29.35;;;12.10;;
45356;SDS011;31092;51.924;21.448;2023-07-02T05:03:38;31.00;;;13.23;;
45356;SDS011;31092;51.924;21.448;2023-07-02T05:06:16;19.42;;;12.68;;
45356;SDS011;31092;51.924;21.448;2023-07-02T05:08:42;25.13;;;12.43;;
45356;SDS011;31092;51.924;21.448;2023-07-02T05:11:08;35.22;;;12.68;;
45356;SDS011;31092;51.924;21.448;2023-07-02T05:13:34;25.83;;;11.30;;
45356;SDS011;31092;51.924;21.448;2023-07-02T05:15:59;22.75;;;11.32;;
45356;SDS011;31092;51.924;21.448;2023-07-02T05:18:35;45.92;;;11.57;;
45356;SDS011;31092;51.924;21.448;2023-07-02T05:21:01;19.70;;;11.68;;
45356;SDS011;31092;51.924;21.448;2023-07-02T05:23:37;17.65;;;10.13;;
45356;SDS011;31092;51.924;21.448;2023-07-02T05:26:03;42.35;;;10.95;;
45356;SDS011;31092;51.924;21.448;2023-07-02T05:28:28;39.53;;;12.60;;
45356;SDS011;31092;51.924;21.448;2023-07-02T05:30:55;13.93;;;8.05;;
45356;SDS011;31092;51.924;21.448;2023-07-02T05:33:20;18.13;;;6.63;;
45356;SDS011;31092;51.924;21.448;2023-07-02T05:35:52;12.75;;;6.05;;
45356;SDS011;31092;51.924;21.448;2023-07-02T05:38:18;10.82;;;5.72;;
45356;SDS011;31092;51.924;21.448;2023-07-02T05:40:44;11.75;;;6.25;;
45356;SDS011;31092;51.924;21.448;2023-07-02T05:43:13;12.70;;;7.28;;
45356;SDS011;31092;51.924;21.448;2023-07-02T05:45:39;10.32;;;6.22;;
45356;SDS011;31092;51.924;21.448;2023-07-02T05:48:04;12.30;;;7.60;;
45356;SDS011;31092;51.924;21.448;2023-07-02T05:50:44;11.27;;;6.65;;
45356;SDS011;31092;51.924;21.448;2023-07-02T05:53:13;10.60;;;5.05;;
45356;SDS011;31092;51.924;21.448;2023-07-02T05:55:39;9.90;;;5.80;;
45356;SDS011;31092;51.924;21.448;2023-07-02T05:58:04;7.38;;;5.07;;
45356;SDS011;31092;51.924;21.448;2023-07-02T06:00:31;39.25;;;6.22;;
45356;SDS011;31092;51.924;21.448;2023-07-02T06:02:57;10.43;;;5.03;;
45356;SDS011;31092;51.924;21.448;2023-07-02T06:05:22;33.00;;;7.53;;
45356;SDS011;31092;51.924;21.448;2023-07-02T06:07:51;7.28;;;4.47;;
45356;SDS011;31092;51.924;21.448;2023-07-02T06:10:17;8.15;;;4.43;;
45356;SDS011;31092;51.924;21.448;2023-07-02T06:12:46;11.48;;;5.90;;
45356;SDS011;31092;51.924;21.448;2023-07-02T06:15:15;16.23;;;5.65;;
45356;SDS011;31092;51.924;21.448;2023-07-02T06:17:51;9.48;;;4.88;;
45356;SDS011;31092;51.924;21.448;2023-07-02T06:22:53;9.25;;;5.88;;
45356;SDS011;31092;51.924;21.448;2023-07-02T06:25:18;10.82;;;6.88;;
45356;SDS011;31092;51.924;21.448;2023-07-02T06:27:44;11.15;;;7.07;;
45356;SDS011;31092;51.924;21.448;2023-07-02T06:30:49;16.90;;;6.75;;
45356;SDS011;31092;51.924;21.448;2023-07-02T06:33:15;12.13;;;7.50;;
45356;SDS011;31092;51.924;21.448;2023-07-02T06:35:40;12.65;;;6.82;;
45356;SDS011;31092;51.924;21.448;2023-07-02T06:38:06;20.65;;;7.20;;
45356;SDS011;31092;51.924;21.448;2023-07-02T06:40:32;10.65;;;6.95;;
45356;SDS011;31092;51.924;21.448;2023-07-02T06:42:58;8.57;;;5.88;;
45356;SDS011;31092;51.924;21.448;2023-07-02T06:45:23;17.60;;;6.68;;
45356;SDS011;31092;51.924;21.448;2023-07-02T06:47:49;7.95;;;6.35;;
45356;SDS011;31092;51.924;21.448;2023-07-02T06:50:18;8.43;;;6.13;;
45356;SDS011;31092;51.924;21.448;2023-07-02T06:53:03;6.43;;;5.32;;
45356;SDS011;31092;51.924;21.448;2023-07-02T06:55:29;10.27;;;5.47;;
45356;SDS011;31092;51.924;21.448;2023-07-02T06:57:57;8.80;;;6.13;;
45356;SDS011;31092;51.924;21.448;2023-07-02T07:00:34;9.10;;;5.90;;
45356;SDS011;31092;51.924;21.448;2023-07-02T07:03:03;9.68;;;5.70;;
45356;SDS011;31092;51.924;21.448;2023-07-02T07:05:38;8.18;;;4.95;;
45356;SDS011;31092;51.924;21.448;2023-07-02T07:08:04;16.88;;;6.30;;
45356;SDS011;31092;51.924;21.448;2023-07-02T07:10:29;11.02;;;5.70;;
45356;SDS011;31092;51.924;21.448;2023-07-02T07:13:11;9.47;;;7.10;;
45356;SDS011;31092;51.924;21.448;2023-07-02T07:15:37;10.18;;;5.57;;
45356;SDS011;31092;51.924;21.448;2023-07-02T07:18:04;9.60;;;6.78;;
45356;SDS011;31092;51.924;21.448;2023-07-02T07:20:52;11.25;;;5.68;;
45356;SDS011;31092;51.924;21.448;2023-07-02T07:23:21;33.47;;;6.10;;
45356;SDS011;31092;51.924;21.448;2023-07-02T07:25:46;12.10;;;5.95;;
45356;SDS011;31092;51.924;21.448;2023-07-02T07:28:12;12.77;;;6.18;;
45356;SDS011;31092;51.924;21.448;2023-07-02T07:30:47;8.35;;;5.78;;
45356;SDS011;31092;51.924;21.448;2023-07-02T07:33:12;12.10;;;6.80;;
45356;SDS011;31092;51.924;21.448;2023-07-02T07:35:41;12.27;;;8.38;;
45356;SDS011;31092;51.924;21.448;2023-07-02T07:38:07;10.68;;;7.53;;
45356;SDS011;31092;51.924;21.448;2023-07-02T07:40:33;9.45;;;8.23;;
45356;SDS011;31092;51.924;21.448;2023-07-02T07:43:09;9.68;;;7.72;;
45356;SDS011;31092;51.924;21.448;2023-07-02T07:45:35;15.88;;;7.65;;
45356;SDS011;31092;51.924;21.448;2023-07-02T07:48:01;12.20;;;7.93;;
45356;SDS011;31092;51.924;21.448;2023-07-02T07:50:30;13.50;;;7.25;;
45356;SDS011;31092;51.924;21.448;2023-07-02T07:52:55;11.32;;;8.77;;
45356;SDS011;31092;51.924;21.448;2023-07-02T07:55:23;12.15;;;7.75;;
45356;SDS011;31092;51.924;21.448;2023-07-02T07:57:49;10.70;;;7.45;;
45356;SDS011;31092;51.924;21.448;2023-07-02T08:00:17;11.20;;;7.70;;
45356;SDS011;31092;51.924;21.448;2023-07-02T08:02:44;12.98;;;6.90;;
45356;SDS011;31092;51.924;21.448;2023-07-02T08:05:11;10.10;;;7.78;;
45356;SDS011;31092;51.924;21.448;2023-07-02T08:07:38;11.68;;;7.28;;
45356;SDS011;31092;51.924;21.448;2023-07-02T08:10:05;15.52;;;7.38;;
45356;SDS011;31092;51.924;21.448;2023-07-02T08:12:35;9.43;;;6.15;;
45356;SDS011;31092;51.924;21.448;2023-07-02T08:15:11;8.30;;;5.50;;
45356;SDS011;31092;51.924;21.448;2023-07-02T08:17:36;9.93;;;6.25;;
45356;SDS011;31092;51.924;21.448;2023-07-02T08:20:11;7.05;;;5.22;;
45356;SDS011;31092;51.924;21.448;2023-07-02T08:22:37;6.97;;;4.97;;
45356;SDS011;31092;51.924;21.448;2023-07-02T08:25:04;7.63;;;4.63;;
45356;SDS011;31092;51.924;21.448;2023-07-02T08:27:30;13.63;;;5.32;;
45356;SDS011;31092;51.924;21.448;2023-07-02T08:29:56;8.52;;;5.93;;
45356;SDS011;31092;51.924;21.448;2023-07-02T08:32:21;8.98;;;5.60;;
45356;SDS011;31092;51.924;21.448;2023-07-02T08:34:48;12.88;;;5.30;;
45356;SDS011;31092;51.924;21.448;2023-07-02T08:37:20;6.70;;;4.05;;
45356;SDS011;31092;51.924;21.448;2023-07-02T08:39:48;5.93;;;4.32;;
45356;SDS011;31092;51.924;21.448;2023-07-02T08:42:17;5.65;;;4.30;;
45356;SDS011;31092;51.924;21.448;2023-07-02T08:44:54;8.88;;;3.95;;
45356;SDS011;31092;51.924;21.448;2023-07-02T08:47:22;7.35;;;4.57;;
45356;SDS011;31092;51.924;21.448;2023-07-02T08:50:26;10.15;;;4.82;;
45356;SDS011;31092;51.924;21.448;2023-07-02T08:52:53;6.38;;;4.63;;
45356;SDS011;31092;51.924;21.448;2023-07-02T08:55:19;6.95;;;4.90;;
45356;SDS011;31092;51.924;21.448;2023-07-02T08:58:17;6.28;;;4.63;;
45356;SDS011;31092;51.924;21.448;2023-07-02T09:00:36;10.07;;;4.15;;
45356;SDS011;31092;51.924;21.448;2023-07-02T09:03:15;12.77;;;5.15;;
45356;SDS011;31092;51.924;21.448;2023-07-02T09:05:48;5.75;;;4.18;;
45356;SDS011;31092;51.924;21.448;2023-07-02T09:08:28;5.22;;;4.47;;
45356;SDS011;31092;51.924;21.448;2023-07-02T09:11:13;4.30;;;3.85;;
45356;SDS011;31092;51.924;21.448;2023-07-02T09:13:57;3.83;;;3.42;;
45356;SDS011;31092;51.924;21.448;2023-07-02T09:16:29;7.55;;;4.60;;
45356;SDS011;31092;51.924;21.448;2023-07-02T09:21:49;4.55;;;3.95;;
45356;SDS011;31092;51.924;21.448;2023-07-02T09:24:25;5.82;;;3.47;;
45356;SDS011;31092;51.924;21.448;2023-07-02T09:26:52;5.35;;;3.60;;
45356;SDS011;31092;51.924;21.448;2023-07-02T09:31:56;3.45;;;2.95;;
45356;SDS011;31092;51.924;21.448;2023-07-02T09:34:27;4.30;;;3.78;;
45356;SDS011;31092;51.924;21.448;2023-07-02T09:37:19;7.72;;;3.40;;
45356;SDS011;31092;51.924;21.448;2023-07-02T09:39:47;8.80;;;4.35;;
45356;SDS011;31092;51.924;21.448;2023-07-02T09:42:18;3.10;;;2.80;;
45356;SDS011;31092;51.924;21.448;2023-07-02T09:44:55;5.07;;;3.33;;
45356;SDS011;31092;51.924;21.448;2023-07-02T09:47:27;3.38;;;3.03;;
45356;SDS011;31092;51.924;21.448;2023-07-02T09:49:55;8.43;;;3.78;;
45356;SDS011;31092;51.924;21.448;2023-07-02T09:52:36;9.20;;;3.53;;
45356;SDS011;31092;51.924;21.448;2023-07-02T09:55:14;4.32;;;3.50;;
45356;SDS011;31092;51.924;21.448;2023-07-02T09:57:40;5.13;;;3.45;;
45356;SDS011;31092;51.924;21.448;2023-07-02T10:03:11;5.05;;;3.33;;
45356;SDS011;31092;51.924;21.448;2023-07-02T10:05:37;2.95;;;2.65;;
45356;SDS011;31092;51.924;21.448;2023-07-02T10:08:11;5.63;;;2.75;;
45356;SDS011;31092;51.924;21.448;2023-07-02T10:10:38;3.70;;;2.65;;
45356;SDS011;31092;51.924;21.448;2023-07-02T10:13:05;4.63;;;3.00;;
45356;SDS011;31092;51.924;21.448;2023-07-02T10:15:31;12.88;;;2.20;;
45356;SDS011;31092;51.924;21.448;2023-07-02T10:18:03;3.83;;;2.20;;
45356;SDS011;31092;51.924;21.448;2023-07-02T10:20:31;18.13;;;3.70;;
45356;SDS011;31092;51.924;21.448;2023-07-02T10:23:03;7.55;;;2.90;;
45356;SDS011;31092;51.924;21.448;2023-07-02T10:25:38;3.85;;;2.70;;
45356;SDS011;31092;51.924;21.448;2023-07-02T10:28:13;4.20;;;3.13;;
45356;SDS011;31092;51.924;21.448;2023-07-02T10:30:42;2.85;;;2.63;;
45356;SDS011;31092;51.924;21.448;2023-07-02T10:33:17;17.70;;;2.92;;
45356;SDS011;31092;51.924;21.448;2023-07-02T10:35:48;3.67;;;2.83;;
45356;SDS011;31092;51.924;21.448;2023-07-02T10:38:42;2.60;;;2.20;;
45356;SDS011;31092;51.924;21.448;2023-07-02T10:41:07;2.38;;;2.17;;
45356;SDS011;31092;51.924;21.448;2023-07-02T10:43:33;3.80;;;2.53;;
45356;SDS011;31092;51.924;21.448;2023-07-02T10:45:59;2.83;;;2.42;;
45356;SDS011;31092;51.924;21.448;2023-07-02T10:48:26;7.45;;;2.85;;
45356;SDS011;31092;51.924;21.448;2023-07-02T10:50:51;2.60;;;2.40;;
45356;SDS011;31092;51.924;21.448;2023-07-02T10:53:18;3.28;;;2.85;;
45356;SDS011;31092;51.924;21.448;2023-07-02T10:55:44;3.88;;;2.40;;
45356;SDS011;31092;51.924;21.448;2023-07-02T10:58:11;8.02;;;2.80;;
45356;SDS011;31092;51.924;21.448;2023-07-02T11:03:25;2.53;;;2.08;;
45356;SDS011;31092;51.924;21.448;2023-07-02T11:05:52;3.05;;;2.50;;
45356;SDS011;31092;51.924;21.448;2023-07-02T11:08:18;2.40;;;2.20;;
45356;SDS011;31092;51.924;21.448;2023-07-02T11:10:46;2.63;;;2.42;;
45356;SDS011;31092;51.924;21.448;2023-07-02T11:13:18;2.22;;;2.03;;
45356;SDS011;31092;51.924;21.448;2023-07-02T11:15:45;6.15;;;1.85;;
45356;SDS011;31092;51.924;21.448;2023-07-02T11:18:13;4.60;;;2.45;;
45356;SDS011;31092;51.924;21.448;2023-07-02T11:20:40;7.50;;;2.30;;
45356;SDS011;31092;51.924;21.448;2023-07-02T11:26:02;2.30;;;1.90;;
45356;SDS011;31092;51.924;21.448;2023-07-02T11:28:29;2.35;;;2.15;;
45356;SDS011;31092;51.924;21.448;2023-07-02T11:30:56;2.10;;;1.90;;
45356;SDS011;31092;51.924;21.448;2023-07-02T11:33:39;4.18;;;1.90;;
45356;SDS011;31092;51.924;21.448;2023-07-02T11:36:05;5.05;;;1.95;;
45356;SDS011;31092;51.924;21.448;2023-07-02T11:38:35;2.50;;;1.73;;
45356;SDS011;31092;51.924;21.448;2023-07-02T11:41:04;2.30;;;2.10;;
45356;SDS011;31092;51.924;21.448;2023-07-02T11:43:30;2.47;;;1.58;;
45356;SDS011;31092;51.924;21.448;2023-07-02T11:45:56;5.47;;;2.30;;
45356;SDS011;31092;51.924;21.448;2023-07-02T11:48:22;1.80;;;1.70;;
45356;SDS011;31092;51.924;21.448;2023-07-02T11:50:47;4.30;;;1.92;;
45356;SDS011;31092;51.924;21.448;2023-07-02T11:53:13;2.75;;;2.28;;
45356;SDS011;31092;51.924;21.448;2023-07-02T11:55:39;2.63;;;2.28;;
45356;SDS011;31092;51.924;21.448;2023-07-02T11:58:05;2.08;;;1.88;;
45356;SDS011;31092;51.924;21.448;2023-07-02T12:00:33;2.80;;;1.75;;
45356;SDS011;31092;51.924;21.448;2023-07-02T12:02:59;4.55;;;1.95;;
45356;SDS011;31092;51.924;21.448;2023-07-02T12:05:24;27.15;;;2.33;;
45356;SDS011;31092;51.924;21.448;2023-07-02T12:07:50;1.80;;;1.70;;
45356;SDS011;31092;51.924;21.448;2023-07-02T12:10:16;2.05;;;1.88;;
45356;SDS011;31092;51.924;21.448;2023-07-02T12:12:42;2.33;;;2.13;;
45356;SDS011;31092;51.924;21.448;2023-07-02T12:15:08;2.97;;;1.90;;
45356;SDS011;31092;51.924;21.448;2023-07-02T12:17:33;3.03;;;2.05;;
45356;SDS011;31092;51.924;21.448;2023-07-02T12:19:59;5.72;;;1.83;;
45356;SDS011;31092;51.924;21.448;2023-07-02T12:22:25;1.70;;;1.60;;
45356;SDS011;31092;51.924;21.448;2023-07-02T12:24:50;2.75;;;1.67;;
45356;SDS011;31092;51.924;21.448;2023-07-02T12:27:18;1.65;;;1.55;;
45356;SDS011;31092;51.924;21.448;2023-07-02T12:29:44;1.50;;;1.40;;
45356;SDS011;31092;51.924;21.448;2023-07-02T12:32:09;1.77;;;1.67;;
45356;SDS011;31092;51.924;21.448;2023-07-02T12:34:35;0.95;;;0.95;;
45356;SDS011;31092;51.924;21.448;2023-07-02T12:37:02;1.10;;;1.05;;
45356;SDS011;31092;51.924;21.448;2023-07-02T12:39:29;1.75;;;1.33;;
45356;SDS011;31092;51.924;21.448;2023-07-02T12:41:54;1.63;;;1.52;;
45356;SDS011;31092;51.924;21.448;2023-07-02T12:44:20;3.08;;;1.30;;
45356;SDS011;31092;51.924;21.448;2023-07-02T12:46:46;1.30;;;1.20;;
45356;SDS011;31092;51.924;21.448;2023-07-02T12:49:14;1.40;;;1.30;;
45356;SDS011;31092;51.924;21.448;2023-07-02T12:51:43;6.00;;;1.77;;
45356;SDS011;31092;51.924;21.448;2023-07-02T12:54:08;3.67;;;1.20;;
45356;SDS011;31092;51.924;21.448;2023-07-02T12:56:34;2.13;;;1.38;;
45356;SDS011;31092;51.924;21.448;2023-07-02T12:59:01;1.10;;;1.00;;
45356;SDS011;31092;51.924;21.448;2023-07-02T13:01:27;4.13;;;1.10;;
45356;SDS011;31092;51.924;21.448;2023-07-02T13:03:59;2.45;;;1.40;;
45356;SDS011;31092;51.924;21.448;2023-07-02T13:06:33;1.77;;;1.67;;
45356;SDS011;31092;51.924;21.448;2023-07-02T13:09:05;16.10;;;2.33;;
45356;SDS011;31092;51.924;21.448;2023-07-02T13:11:31;1.60;;;1.50;;
45356;SDS011;31092;51.924;21.448;2023-07-02T13:13:57;2.03;;;1.77;;
45356;SDS011;31092;51.924;21.448;2023-07-02T13:16:25;1.65;;;1.55;;
45356;SDS011;31092;51.924;21.448;2023-07-02T13:18:51;27.20;;;2.03;;
45356;SDS011;31092;51.924;21.448;2023-07-02T13:21:20;1.20;;;1.10;;
45356;SDS011;31092;51.924;21.448;2023-07-02T13:23:46;8.68;;;1.48;;
45356;SDS011;31092;51.924;21.448;2023-07-02T13:26:11;0.90;;;0.90;;
45356;SDS011;31092;51.924;21.448;2023-07-02T13:28:37;1.17;;;1.08;;
45356;SDS011;31092;51.924;21.448;2023-07-02T13:31:02;0.93;;;0.77;;
45356;SDS011;31092;51.924;21.448;2023-07-02T13:36:49;2.55;;;1.10;;
45356;SDS011;31092;51.924;21.448;2023-07-02T13:39:15;2.28;;;0.90;;
45356;SDS011;31092;51.924;21.448;2023-07-02T13:41:40;28.92;;;2.45;;
45356;SDS011;31092;51.924;21.448;2023-07-02T13:44:06;0.65;;;0.65;;
45356;SDS011;31092;51.924;21.448;2023-07-02T13:46:31;1.17;;;0.80;;
45356;SDS011;31092;51.924;21.448;2023-07-02T13:48:57;1.17;;;0.90;;
45356;SDS011;31092;51.924;21.448;2023-07-02T13:51:22;0.82;;;0.82;;
45356;SDS011;31092;51.924;21.448;2023-07-02T13:53:48;0.75;;;0.70;;
45356;SDS011;31092;51.924;21.448;2023-07-02T13:56:13;10.32;;;1.48;;
45356;SDS011;31092;51.924;21.448;2023-07-02T13:58:45;1.30;;;1.20;;
45356;SDS011;31092;51.924;21.448;2023-07-02T14:01:12;0.90;;;0.90;;
45356;SDS011;31092;51.924;21.448;2023-07-02T14:03:38;1.92;;;1.05;;
45356;SDS011;31092;51.924;21.448;2023-07-02T14:06:04;4.18;;;0.90;;
45356;SDS011;31092;51.924;21.448;2023-07-02T14:08:29;2.13;;;0.85;;
45356;SDS011;31092;51.924;21.448;2023-07-02T14:10:55;1.60;;;1.15;;
45356;SDS011;31092;51.924;21.448;2023-07-02T14:13:20;1.30;;;1.20;;
45356;SDS011;31092;51.924;21.448;2023-07-02T14:15:46;1.55;;;0.90;;
45356;SDS011;31092;51.924;21.448;2023-07-02T14:18:11;1.52;;;0.90;;
45356;SDS011;31092;51.924;21.448;2023-07-02T14:20:37;0.80;;;0.80;;
45356;SDS011;31092;51.924;21.448;2023-07-02T14:23:03;1.20;;;1.10;;
45356;SDS011;31092;51.924;21.448;2023-07-02T14:25:28;0.93;;;0.93;;
45356;SDS011;31092;51.924;21.448;2023-07-02T14:27:54;1.52;;;0.80;;
45356;SDS011;31092;51.924;21.448;2023-07-02T14:30:19;1.58;;;1.02;;
45356;SDS011;31092;51.924;21.448;2023-07-02T14:32:45;1.45;;;1.00;;
45356;SDS011;31092;51.924;21.448;2023-07-02T14:35:11;0.82;;;0.82;;
45356;SDS011;31092;51.924;21.448;2023-07-02T14:37:36;0.77;;;0.77;;
45356;SDS011;31092;51.924;21.448;2023-07-02T14:40:02;1.70;;;1.02;;
45356;SDS011;31092;51.924;21.448;2023-07-02T14:42:28;1.48;;;1.00;;
45356;SDS011;31092;51.924;21.448;2023-07-02T14:44:53;1.33;;;1.15;;
45356;SDS011;31092;51.924;21.448;2023-07-02T14:47:19;0.73;;;0.73;;
45356;SDS011;31092;51.924;21.448;2023-07-02T14:49:44;0.70;;;0.70;;
45356;SDS011;31092;51.924;21.448;2023-07-02T14:52:10;1.00;;;0.93;;
45356;SDS011;31092;51.924;21.448;2023-07-02T14:54:37;2.70;;;0.90;;
45356;SDS011;31092;51.924;21.448;2023-07-02T14:57:12;0.82;;;0.82;;
45356;SDS011;31092;51.924;21.448;2023-07-02T14:59:38;0.63;;;0.63;;
45356;SDS011;31092;51.924;21.448;2023-07-02T15:02:03;1.05;;;0.95;;
45356;SDS011;31092;51.924;21.448;2023-07-02T15:04:29;0.80;;;0.80;;
45356;SDS011;31092;51.924;21.448;2023-07-02T15:06:55;2.08;;;1.00;;
45356;SDS011;31092;51.924;21.448;2023-07-02T15:09:21;0.65;;;0.65;;
45356;SDS011;31092;51.924;21.448;2023-07-02T15:11:46;1.42;;;1.23;;
45356;SDS011;31092;51.924;21.448;2023-07-02T15:14:12;0.90;;;0.90;;
45356;SDS011;31092;51.924;21.448;2023-07-02T15:16:37;3.03;;;0.98;;
45356;SDS011;31092;51.924;21.448;2023-07-02T15:19:06;0.80;;;0.80;;
45356;SDS011;31092;51.924;21.448;2023-07-02T15:21:31;1.17;;;0.95;;
45356;SDS011;31092;51.924;21.448;2023-07-02T15:23:57;1.20;;;0.80;;